Garnish, Canada
Current Conditions -  °F | °C
As of 7:00 AM on Tuesday 21 Oct 2014 (Local Time) from LFVP Reporting Station
Broken Clouds Broken Clouds  
Wind Chill: 40°   Ceiling: 4000
Heat Index: 48°   Visibility: 6mi
Dew Point: 39°   Wind: 26mph
Humidity: 71%   Direction: 260°W
Pressure: 29.94"   Gusts: NA
Location:  47.23°N, 55.37°W
Report Text: LFVP 210900Z 26023KT 9999 BKN040 09/04 Q1014 NOSIG
Loading
Personal Weather Stations






























Interactive Weather Map
Tropical Storm Tracking
New forecast layout! Learn more

10-Day Weather Forecast

Advertisements
Track Severe Weather on mobile